sensor_id;sensor_type;location;lat;lon;timestamp;P1;durP1;ratioP1;P2;durP2;ratioP2
62947;SDS011;51940;52.126;-0.994;2022-10-31T00:02:19;12.50;;;2.60;;
62947;SDS011;51940;52.126;-0.994;2022-10-31T00:04:44;15.90;;;2.10;;
62947;SDS011;51940;52.126;-0.994;2022-10-31T00:07:10;11.60;;;2.00;;
62947;SDS011;51940;52.126;-0.994;2022-10-31T00:09:35;18.30;;;2.30;;
62947;SDS011;51940;52.126;-0.994;2022-10-31T00:12:01;16.20;;;2.50;;
62947;SDS011;51940;52.126;-0.994;2022-10-31T00:14:26;12.50;;;2.10;;
62947;SDS011;51940;52.126;-0.994;2022-10-31T00:16:51;14.20;;;2.70;;
62947;SDS011;51940;52.126;-0.994;2022-10-31T00:19:17;13.70;;;2.20;;
62947;SDS011;51940;52.126;-0.994;2022-10-31T00:21:42;14.10;;;2.50;;
62947;SDS011;51940;52.126;-0.994;2022-10-31T00:24:10;12.20;;;2.60;;
62947;SDS011;51940;52.126;-0.994;2022-10-31T00:26:36;17.50;;;2.20;;
62947;SDS011;51940;52.126;-0.994;2022-10-31T00:29:01;11.70;;;2.10;;
62947;SDS011;51940;52.126;-0.994;2022-10-31T00:31:26;17.50;;;3.40;;
62947;SDS011;51940;52.126;-0.994;2022-10-31T00:33:52;9.70;;;2.10;;
62947;SDS011;51940;52.126;-0.994;2022-10-31T00:36:18;13.50;;;2.40;;
62947;SDS011;51940;52.126;-0.994;2022-10-31T00:38:45;10.50;;;1.90;;
62947;SDS011;51940;52.126;-0.994;2022-10-31T00:41:12;10.70;;;2.10;;
62947;SDS011;51940;52.126;-0.994;2022-10-31T00:43:40;14.40;;;2.20;;
62947;SDS011;51940;52.126;-0.994;2022-10-31T00:46:06;9.20;;;2.40;;
62947;SDS011;51940;52.126;-0.994;2022-10-31T00:48:32;11.30;;;2.50;;
62947;SDS011;51940;52.126;-0.994;2022-10-31T00:50:57;11.00;;;2.10;;
62947;SDS011;51940;52.126;-0.994;2022-10-31T00:53:22;16.70;;;2.40;;
62947;SDS011;51940;52.126;-0.994;2022-10-31T00:55:48;13.00;;;2.40;;
62947;SDS011;51940;52.126;-0.994;2022-10-31T00:58:13;11.70;;;2.00;;
62947;SDS011;51940;52.126;-0.994;2022-10-31T01:00:39;15.30;;;2.20;;
62947;SDS011;51940;52.126;-0.994;2022-10-31T01:03:05;11.40;;;2.10;;
62947;SDS011;51940;52.126;-0.994;2022-10-31T01:05:30;13.90;;;2.00;;
62947;SDS011;51940;52.126;-0.994;2022-10-31T01:07:56;15.10;;;2.00;;
62947;SDS011;51940;52.126;-0.994;2022-10-31T01:10:21;9.40;;;1.80;;
62947;SDS011;51940;52.126;-0.994;2022-10-31T01:12:48;12.90;;;2.40;;
62947;SDS011;51940;52.126;-0.994;2022-10-31T01:15:15;14.10;;;2.20;;
62947;SDS011;51940;52.126;-0.994;2022-10-31T01:17:47;13.70;;;2.00;;
62947;SDS011;51940;52.126;-0.994;2022-10-31T01:20:13;21.00;;;2.90;;
62947;SDS011;51940;52.126;-0.994;2022-10-31T01:22:40;13.90;;;2.70;;
62947;SDS011;51940;52.126;-0.994;2022-10-31T01:25:06;10.60;;;2.40;;
62947;SDS011;51940;52.126;-0.994;2022-10-31T01:27:33;10.90;;;2.20;;
62947;SDS011;51940;52.126;-0.994;2022-10-31T01:29:58;15.80;;;2.60;;
62947;SDS011;51940;52.126;-0.994;2022-10-31T01:32:24;14.30;;;2.30;;
62947;SDS011;51940;52.126;-0.994;2022-10-31T01:34:49;9.60;;;2.30;;
62947;SDS011;51940;52.126;-0.994;2022-10-31T01:37:15;10.20;;;1.90;;
62947;SDS011;51940;52.126;-0.994;2022-10-31T01:39:43;11.40;;;2.10;;
62947;SDS011;51940;52.126;-0.994;2022-10-31T01:42:18;14.20;;;2.10;;
62947;SDS011;51940;52.126;-0.994;2022-10-31T01:47:17;7.10;;;2.10;;
62947;SDS011;51940;52.126;-0.994;2022-10-31T01:49:51;13.70;;;2.20;;
62947;SDS011;51940;52.126;-0.994;2022-10-31T01:52:25;14.60;;;2.20;;
62947;SDS011;51940;52.126;-0.994;2022-10-31T01:55:01;13.30;;;2.10;;
62947;SDS011;51940;52.126;-0.994;2022-10-31T01:57:30;13.40;;;2.00;;
62947;SDS011;51940;52.126;-0.994;2022-10-31T01:59:59;13.20;;;2.00;;
62947;SDS011;51940;52.126;-0.994;2022-10-31T02:02:29;12.70;;;2.00;;
62947;SDS011;51940;52.126;-0.994;2022-10-31T02:04:56;14.70;;;2.00;;
62947;SDS011;51940;52.126;-0.994;2022-10-31T02:07:30;15.90;;;2.40;;
62947;SDS011;51940;52.126;-0.994;2022-10-31T02:10:02;12.10;;;2.10;;
62947;SDS011;51940;52.126;-0.994;2022-10-31T02:12:29;10.10;;;2.10;;
62947;SDS011;51940;52.126;-0.994;2022-10-31T02:14:56;17.10;;;2.40;;
62947;SDS011;51940;52.126;-0.994;2022-10-31T02:17:22;10.90;;;2.00;;
62947;SDS011;51940;52.126;-0.994;2022-10-31T02:22:39;18.60;;;2.50;;
62947;SDS011;51940;52.126;-0.994;2022-10-31T02:25:42;11.70;;;2.00;;
62947;SDS011;51940;52.126;-0.994;2022-10-31T02:28:45;9.40;;;1.90;;
62947;SDS011;51940;52.126;-0.994;2022-10-31T02:31:29;12.80;;;2.00;;
62947;SDS011;51940;52.126;-0.994;2022-10-31T02:34:10;12.30;;;2.10;;
62947;SDS011;51940;52.126;-0.994;2022-10-31T02:36:41;12.50;;;2.10;;
62947;SDS011;51940;52.126;-0.994;2022-10-31T02:39:18;9.30;;;1.80;;
62947;SDS011;51940;52.126;-0.994;2022-10-31T02:41:52;10.20;;;2.10;;
62947;SDS011;51940;52.126;-0.994;2022-10-31T02:44:33;11.10;;;2.20;;
62947;SDS011;51940;52.126;-0.994;2022-10-31T02:49:40;11.70;;;2.20;;
62947;SDS011;51940;52.126;-0.994;2022-10-31T02:52:24;10.00;;;2.30;;
62947;SDS011;51940;52.126;-0.994;2022-10-31T02:54:52;12.50;;;2.40;;
62947;SDS011;51940;52.126;-0.994;2022-10-31T02:57:20;13.10;;;2.20;;
62947;SDS011;51940;52.126;-0.994;2022-10-31T02:59:50;8.10;;;1.60;;
62947;SDS011;51940;52.126;-0.994;2022-10-31T03:02:55;11.40;;;2.40;;
62947;SDS011;51940;52.126;-0.994;2022-10-31T03:05:53;13.80;;;2.10;;
62947;SDS011;51940;52.126;-0.994;2022-10-31T03:11:15;11.40;;;2.20;;
62947;SDS011;51940;52.126;-0.994;2022-10-31T03:16:29;14.20;;;2.10;;
62947;SDS011;51940;52.126;-0.994;2022-10-31T03:19:05;11.10;;;1.90;;
62947;SDS011;51940;52.126;-0.994;2022-10-31T03:24:15;11.30;;;2.30;;
62947;SDS011;51940;52.126;-0.994;2022-10-31T03:26:47;8.60;;;2.00;;
62947;SDS011;51940;52.126;-0.994;2022-10-31T03:29:18;14.50;;;2.00;;
62947;SDS011;51940;52.126;-0.994;2022-10-31T03:34:34;13.10;;;2.10;;
62947;SDS011;51940;52.126;-0.994;2022-10-31T03:37:03;16.80;;;2.50;;
62947;SDS011;51940;52.126;-0.994;2022-10-31T03:39:31;11.90;;;2.10;;
62947;SDS011;51940;52.126;-0.994;2022-10-31T03:42:09;11.50;;;2.30;;
62947;SDS011;51940;52.126;-0.994;2022-10-31T03:44:39;12.70;;;2.10;;
62947;SDS011;51940;52.126;-0.994;2022-10-31T03:47:09;11.30;;;2.00;;
62947;SDS011;51940;52.126;-0.994;2022-10-31T03:49:34;10.20;;;1.90;;
62947;SDS011;51940;52.126;-0.994;2022-10-31T03:54:42;15.70;;;2.30;;
62947;SDS011;51940;52.126;-0.994;2022-10-31T03:57:27;12.20;;;2.20;;
62947;SDS011;51940;52.126;-0.994;2022-10-31T04:00:06;15.00;;;2.10;;
62947;SDS011;51940;52.126;-0.994;2022-10-31T04:02:40;12.80;;;2.30;;
62947;SDS011;51940;52.126;-0.994;2022-10-31T04:05:10;12.10;;;2.00;;
62947;SDS011;51940;52.126;-0.994;2022-10-31T04:07:40;11.70;;;2.00;;
62947;SDS011;51940;52.126;-0.994;2022-10-31T04:10:10;12.30;;;2.00;;
62947;SDS011;51940;52.126;-0.994;2022-10-31T04:12:38;14.50;;;2.20;;
62947;SDS011;51940;52.126;-0.994;2022-10-31T04:15:05;8.80;;;2.00;;
62947;SDS011;51940;52.126;-0.994;2022-10-31T04:17:33;16.50;;;2.10;;
62947;SDS011;51940;52.126;-0.994;2022-10-31T04:20:04;11.20;;;2.30;;
62947;SDS011;51940;52.126;-0.994;2022-10-31T04:22:30;13.70;;;2.00;;
62947;SDS011;51940;52.126;-0.994;2022-10-31T04:24:56;14.90;;;2.40;;
62947;SDS011;51940;52.126;-0.994;2022-10-31T04:27:21;9.70;;;2.00;;
62947;SDS011;51940;52.126;-0.994;2022-10-31T04:29:46;10.90;;;2.20;;
62947;SDS011;51940;52.126;-0.994;2022-10-31T04:32:12;13.10;;;2.10;;
62947;SDS011;51940;52.126;-0.994;2022-10-31T04:34:37;8.90;;;1.70;;
62947;SDS011;51940;52.126;-0.994;2022-10-31T04:37:03;14.00;;;2.50;;
62947;SDS011;51940;52.126;-0.994;2022-10-31T04:39:28;12.80;;;2.00;;
62947;SDS011;51940;52.126;-0.994;2022-10-31T04:41:53;15.90;;;1.80;;
62947;SDS011;51940;52.126;-0.994;2022-10-31T04:44:19;10.90;;;1.90;;
62947;SDS011;51940;52.126;-0.994;2022-10-31T04:46:44;9.60;;;2.10;;
62947;SDS011;51940;52.126;-0.994;2022-10-31T04:49:10;10.20;;;2.10;;
62947;SDS011;51940;52.126;-0.994;2022-10-31T04:51:35;9.60;;;2.10;;
62947;SDS011;51940;52.126;-0.994;2022-10-31T04:54:00;12.80;;;1.50;;
62947;SDS011;51940;52.126;-0.994;2022-10-31T04:56:26;11.60;;;2.30;;
62947;SDS011;51940;52.126;-0.994;2022-10-31T04:58:51;11.30;;;2.40;;
62947;SDS011;51940;52.126;-0.994;2022-10-31T05:01:17;15.50;;;2.30;;
62947;SDS011;51940;52.126;-0.994;2022-10-31T05:03:42;9.80;;;2.30;;
62947;SDS011;51940;52.126;-0.994;2022-10-31T05:06:08;8.60;;;2.10;;
62947;SDS011;51940;52.126;-0.994;2022-10-31T05:08:33;10.30;;;1.80;;
62947;SDS011;51940;52.126;-0.994;2022-10-31T05:10:59;11.10;;;2.00;;
62947;SDS011;51940;52.126;-0.994;2022-10-31T05:13:25;9.80;;;1.70;;
62947;SDS011;51940;52.126;-0.994;2022-10-31T05:15:51;10.00;;;2.00;;
62947;SDS011;51940;52.126;-0.994;2022-10-31T05:18:16;10.10;;;2.40;;
62947;SDS011;51940;52.126;-0.994;2022-10-31T05:20:42;11.10;;;2.30;;
62947;SDS011;51940;52.126;-0.994;2022-10-31T05:23:07;9.40;;;2.20;;
62947;SDS011;51940;52.126;-0.994;2022-10-31T05:25:32;11.60;;;1.80;;
62947;SDS011;51940;52.126;-0.994;2022-10-31T05:27:58;9.90;;;2.20;;
62947;SDS011;51940;52.126;-0.994;2022-10-31T05:30:27;10.30;;;2.10;;
62947;SDS011;51940;52.126;-0.994;2022-10-31T05:32:54;12.50;;;2.30;;
62947;SDS011;51940;52.126;-0.994;2022-10-31T05:35:22;12.80;;;2.20;;
62947;SDS011;51940;52.126;-0.994;2022-10-31T05:37:52;7.20;;;1.90;;
62947;SDS011;51940;52.126;-0.994;2022-10-31T05:40:18;16.10;;;2.90;;
62947;SDS011;51940;52.126;-0.994;2022-10-31T05:42:44;8.40;;;2.00;;
62947;SDS011;51940;52.126;-0.994;2022-10-31T05:45:12;9.20;;;2.10;;
62947;SDS011;51940;52.126;-0.994;2022-10-31T05:47:40;9.60;;;2.20;;
62947;SDS011;51940;52.126;-0.994;2022-10-31T05:50:06;10.20;;;2.00;;
62947;SDS011;51940;52.126;-0.994;2022-10-31T05:52:32;10.60;;;2.10;;
62947;SDS011;51940;52.126;-0.994;2022-10-31T05:54:57;10.70;;;2.10;;
62947;SDS011;51940;52.126;-0.994;2022-10-31T05:57:23;13.40;;;2.10;;
62947;SDS011;51940;52.126;-0.994;2022-10-31T05:59:49;9.50;;;2.30;;
62947;SDS011;51940;52.126;-0.994;2022-10-31T06:02:17;5.30;;;1.70;;
62947;SDS011;51940;52.126;-0.994;2022-10-31T06:04:43;8.70;;;2.50;;
62947;SDS011;51940;52.126;-0.994;2022-10-31T06:07:09;11.10;;;2.40;;
62947;SDS011;51940;52.126;-0.994;2022-10-31T06:09:34;11.90;;;2.00;;
62947;SDS011;51940;52.126;-0.994;2022-10-31T06:11:59;7.30;;;2.10;;
62947;SDS011;51940;52.126;-0.994;2022-10-31T06:14:25;11.50;;;2.50;;
62947;SDS011;51940;52.126;-0.994;2022-10-31T06:16:50;11.60;;;2.30;;
62947;SDS011;51940;52.126;-0.994;2022-10-31T06:19:16;13.20;;;2.40;;
62947;SDS011;51940;52.126;-0.994;2022-10-31T06:21:41;12.00;;;2.20;;
62947;SDS011;51940;52.126;-0.994;2022-10-31T06:24:06;11.50;;;2.50;;
62947;SDS011;51940;52.126;-0.994;2022-10-31T06:26:32;7.20;;;2.30;;
62947;SDS011;51940;52.126;-0.994;2022-10-31T06:28:57;14.20;;;2.50;;
62947;SDS011;51940;52.126;-0.994;2022-10-31T06:31:23;12.10;;;2.60;;
62947;SDS011;51940;52.126;-0.994;2022-10-31T06:33:48;14.40;;;2.50;;
62947;SDS011;51940;52.126;-0.994;2022-10-31T06:36:13;8.10;;;2.40;;
62947;SDS011;51940;52.126;-0.994;2022-10-31T06:38:39;10.20;;;2.30;;
62947;SDS011;51940;52.126;-0.994;2022-10-31T06:41:04;9.90;;;2.50;;
62947;SDS011;51940;52.126;-0.994;2022-10-31T06:43:30;10.10;;;2.10;;
62947;SDS011;51940;52.126;-0.994;2022-10-31T06:45:56;14.40;;;2.70;;
62947;SDS011;51940;52.126;-0.994;2022-10-31T06:48:22;12.20;;;2.00;;
62947;SDS011;51940;52.126;-0.994;2022-10-31T06:50:48;11.70;;;2.60;;
62947;SDS011;51940;52.126;-0.994;2022-10-31T06:53:13;11.80;;;2.70;;
62947;SDS011;51940;52.126;-0.994;2022-10-31T06:55:39;11.30;;;2.50;;
62947;SDS011;51940;52.126;-0.994;2022-10-31T06:58:05;10.50;;;2.60;;
62947;SDS011;51940;52.126;-0.994;2022-10-31T07:00:31;9.90;;;2.60;;
62947;SDS011;51940;52.126;-0.994;2022-10-31T07:03:00;12.70;;;2.80;;
62947;SDS011;51940;52.126;-0.994;2022-10-31T07:05:28;9.20;;;2.20;;
62947;SDS011;51940;52.126;-0.994;2022-10-31T07:07:55;8.90;;;2.70;;
62947;SDS011;51940;52.126;-0.994;2022-10-31T07:10:22;7.80;;;2.20;;
62947;SDS011;51940;52.126;-0.994;2022-10-31T07:12:53;15.00;;;2.60;;
62947;SDS011;51940;52.126;-0.994;2022-10-31T07:15:19;9.20;;;2.30;;
62947;SDS011;51940;52.126;-0.994;2022-10-31T07:17:45;11.50;;;2.60;;
62947;SDS011;51940;52.126;-0.994;2022-10-31T07:20:10;8.50;;;3.20;;
62947;SDS011;51940;52.126;-0.994;2022-10-31T07:22:36;12.70;;;2.80;;
62947;SDS011;51940;52.126;-0.994;2022-10-31T07:25:02;13.20;;;3.00;;
62947;SDS011;51940;52.126;-0.994;2022-10-31T07:27:27;15.80;;;3.30;;
62947;SDS011;51940;52.126;-0.994;2022-10-31T07:29:53;9.00;;;3.30;;
62947;SDS011;51940;52.126;-0.994;2022-10-31T07:32:18;10.70;;;3.80;;
62947;SDS011;51940;52.126;-0.994;2022-10-31T07:34:44;13.00;;;3.70;;
62947;SDS011;51940;52.126;-0.994;2022-10-31T07:37:09;8.00;;;3.40;;
62947;SDS011;51940;52.126;-0.994;2022-10-31T07:39:35;10.50;;;3.80;;
62947;SDS011;51940;52.126;-0.994;2022-10-31T07:42:00;9.50;;;3.60;;
62947;SDS011;51940;52.126;-0.994;2022-10-31T07:44:26;11.10;;;3.50;;
62947;SDS011;51940;52.126;-0.994;2022-10-31T07:46:51;10.00;;;3.50;;
62947;SDS011;51940;52.126;-0.994;2022-10-31T07:49:16;13.80;;;4.00;;
62947;SDS011;51940;52.126;-0.994;2022-10-31T07:51:42;11.20;;;3.40;;
62947;SDS011;51940;52.126;-0.994;2022-10-31T07:54:07;7.80;;;3.50;;
62947;SDS011;51940;52.126;-0.994;2022-10-31T07:56:33;10.30;;;3.50;;
62947;SDS011;51940;52.126;-0.994;2022-10-31T07:58:58;5.70;;;3.30;;
62947;SDS011;51940;52.126;-0.994;2022-10-31T08:01:23;9.90;;;3.80;;
62947;SDS011;51940;52.126;-0.994;2022-10-31T08:03:49;14.40;;;4.00;;
62947;SDS011;51940;52.126;-0.994;2022-10-31T08:06:14;12.90;;;3.80;;
62947;SDS011;51940;52.126;-0.994;2022-10-31T08:08:39;5.50;;;3.20;;
62947;SDS011;51940;52.126;-0.994;2022-10-31T08:11:05;11.30;;;3.90;;
62947;SDS011;51940;52.126;-0.994;2022-10-31T08:13:31;8.60;;;4.30;;
62947;SDS011;51940;52.126;-0.994;2022-10-31T08:15:57;14.10;;;4.00;;
62947;SDS011;51940;52.126;-0.994;2022-10-31T08:18:28;12.30;;;3.50;;
62947;SDS011;51940;52.126;-0.994;2022-10-31T08:20:54;15.00;;;3.70;;
62947;SDS011;51940;52.126;-0.994;2022-10-31T08:23:20;15.10;;;4.00;;
62947;SDS011;51940;52.126;-0.994;2022-10-31T08:25:45;13.20;;;3.40;;
62947;SDS011;51940;52.126;-0.994;2022-10-31T08:28:12;10.80;;;3.30;;
62947;SDS011;51940;52.126;-0.994;2022-10-31T08:30:39;16.80;;;3.40;;
62947;SDS011;51940;52.126;-0.994;2022-10-31T08:33:10;9.20;;;2.60;;
62947;SDS011;51940;52.126;-0.994;2022-10-31T08:35:37;5.20;;;2.40;;
62947;SDS011;51940;52.126;-0.994;2022-10-31T08:38:03;16.00;;;2.80;;
62947;SDS011;51940;52.126;-0.994;2022-10-31T08:40:30;15.70;;;2.90;;
62947;SDS011;51940;52.126;-0.994;2022-10-31T08:42:58;13.20;;;2.60;;
62947;SDS011;51940;52.126;-0.994;2022-10-31T08:45:28;11.90;;;2.80;;
62947;SDS011;51940;52.126;-0.994;2022-10-31T08:47:58;10.70;;;2.70;;
62947;SDS011;51940;52.126;-0.994;2022-10-31T08:50:29;8.70;;;3.10;;
62947;SDS011;51940;52.126;-0.994;2022-10-31T08:53:03;13.80;;;2.80;;
62947;SDS011;51940;52.126;-0.994;2022-10-31T08:55:36;8.20;;;2.70;;
62947;SDS011;51940;52.126;-0.994;2022-10-31T08:58:02;11.30;;;2.20;;
62947;SDS011;51940;52.126;-0.994;2022-10-31T09:00:29;12.70;;;2.80;;
62947;SDS011;51940;52.126;-0.994;2022-10-31T09:03:06;12.60;;;2.90;;
62947;SDS011;51940;52.126;-0.994;2022-10-31T09:05:36;15.20;;;2.80;;
62947;SDS011;51940;52.126;-0.994;2022-10-31T09:08:02;9.40;;;2.70;;
62947;SDS011;51940;52.126;-0.994;2022-10-31T09:10:29;17.60;;;3.40;;
62947;SDS011;51940;52.126;-0.994;2022-10-31T09:12:58;11.00;;;2.90;;
62947;SDS011;51940;52.126;-0.994;2022-10-31T09:15:26;8.80;;;2.90;;
62947;SDS011;51940;52.126;-0.994;2022-10-31T09:17:53;10.60;;;3.10;;
62947;SDS011;51940;52.126;-0.994;2022-10-31T09:20:19;10.80;;;3.40;;
62947;SDS011;51940;52.126;-0.994;2022-10-31T09:22:45;14.00;;;3.00;;
62947;SDS011;51940;52.126;-0.994;2022-10-31T09:25:11;12.30;;;2.90;;
62947;SDS011;51940;52.126;-0.994;2022-10-31T09:27:37;8.30;;;3.20;;
62947;SDS011;51940;52.126;-0.994;2022-10-31T09:30:03;10.40;;;3.10;;
62947;SDS011;51940;52.126;-0.994;2022-10-31T09:32:29;11.80;;;3.30;;
62947;SDS011;51940;52.126;-0.994;2022-10-31T09:34:54;7.10;;;2.90;;
62947;SDS011;51940;52.126;-0.994;2022-10-31T09:37:19;6.90;;;2.90;;
62947;SDS011;51940;52.126;-0.994;2022-10-31T09:39:45;14.30;;;3.20;;
62947;SDS011;51940;52.126;-0.994;2022-10-31T09:45:11;11.40;;;2.90;;
62947;SDS011;51940;52.126;-0.994;2022-10-31T09:48:01;8.80;;;2.90;;
62947;SDS011;51940;52.126;-0.994;2022-10-31T09:50:50;8.70;;;2.60;;
62947;SDS011;51940;52.126;-0.994;2022-10-31T09:53:28;8.10;;;2.60;;
62947;SDS011;51940;52.126;-0.994;2022-10-31T09:55:56;10.00;;;2.70;;
62947;SDS011;51940;52.126;-0.994;2022-10-31T09:58:24;9.90;;;2.20;;
62947;SDS011;51940;52.126;-0.994;2022-10-31T10:00:51;11.50;;;2.10;;
62947;SDS011;51940;52.126;-0.994;2022-10-31T10:08:44;7.70;;;1.90;;
62947;SDS011;51940;52.126;-0.994;2022-10-31T10:30:42;6.40;;;1.70;;
62947;SDS011;51940;52.126;-0.994;2022-10-31T10:33:31;10.70;;;1.60;;
62947;SDS011;51940;52.126;-0.994;2022-10-31T10:36:02;10.00;;;1.50;;
62947;SDS011;51940;52.126;-0.994;2022-10-31T10:38:44;6.70;;;1.60;;
62947;SDS011;51940;52.126;-0.994;2022-10-31T10:41:16;6.00;;;1.50;;
62947;SDS011;51940;52.126;-0.994;2022-10-31T10:43:43;6.90;;;1.60;;
62947;SDS011;51940;52.126;-0.994;2022-10-31T10:46:16;9.30;;;1.60;;
62947;SDS011;51940;52.126;-0.994;2022-10-31T10:55:08;8.70;;;1.70;;
62947;SDS011;51940;52.126;-0.994;2022-10-31T10:57:47;7.60;;;1.90;;
62947;SDS011;51940;52.126;-0.994;2022-10-31T11:02:57;9.70;;;1.90;;
62947;SDS011;51940;52.126;-0.994;2022-10-31T11:05:36;4.40;;;1.50;;
62947;SDS011;51940;52.126;-0.994;2022-10-31T11:08:07;10.50;;;1.80;;
62947;SDS011;51940;52.126;-0.994;2022-10-31T11:10:33;9.10;;;1.70;;
62947;SDS011;51940;52.126;-0.994;2022-10-31T11:15:28;6.40;;;1.20;;
62947;SDS011;51940;52.126;-0.994;2022-10-31T11:17:57;6.40;;;1.40;;
62947;SDS011;51940;52.126;-0.994;2022-10-31T11:23:04;5.90;;;1.40;;
62947;SDS011;51940;52.126;-0.994;2022-10-31T11:25:47;8.40;;;1.40;;
62947;SDS011;51940;52.126;-0.994;2022-10-31T11:28:14;7.20;;;1.50;;
62947;SDS011;51940;52.126;-0.994;2022-10-31T11:30:44;6.20;;;1.20;;
62947;SDS011;51940;52.126;-0.994;2022-10-31T11:36:03;5.80;;;1.20;;
62947;SDS011;51940;52.126;-0.994;2022-10-31T11:38:41;8.80;;;1.50;;
62947;SDS011;51940;52.126;-0.994;2022-10-31T11:43:39;11.10;;;1.60;;
62947;SDS011;51940;52.126;-0.994;2022-10-31T11:46:11;8.10;;;1.40;;
62947;SDS011;51940;52.126;-0.994;2022-10-31T11:48:45;6.90;;;1.40;;
62947;SDS011;51940;52.126;-0.994;2022-10-31T11:51:23;4.80;;;1.20;;
62947;SDS011;51940;52.126;-0.994;2022-10-31T11:53:55;7.90;;;1.70;;
62947;SDS011;51940;52.126;-0.994;2022-10-31T11:56:22;3.90;;;1.40;;
62947;SDS011;51940;52.126;-0.994;2022-10-31T11:58:59;6.10;;;1.30;;
62947;SDS011;51940;52.126;-0.994;2022-10-31T12:01:28;6.40;;;1.50;;
62947;SDS011;51940;52.126;-0.994;2022-10-31T12:06:38;4.20;;;1.30;;
62947;SDS011;51940;52.126;-0.994;2022-10-31T12:15:03;4.40;;;1.10;;
62947;SDS011;51940;52.126;-0.994;2022-10-31T12:20:35;5.90;;;1.30;;
62947;SDS011;51940;52.126;-0.994;2022-10-31T12:25:56;6.00;;;1.00;;
62947;SDS011;51940;52.126;-0.994;2022-10-31T12:30:56;3.20;;;1.30;;
62947;SDS011;51940;52.126;-0.994;2022-10-31T12:36:06;4.20;;;1.20;;
62947;SDS011;51940;52.126;-0.994;2022-10-31T12:44:39;4.00;;;1.30;;
62947;SDS011;51940;52.126;-0.994;2022-10-31T12:58:27;7.10;;;1.40;;
62947;SDS011;51940;52.126;-0.994;2022-10-31T13:01:06;7.30;;;1.40;;
62947;SDS011;51940;52.126;-0.994;2022-10-31T13:06:32;6.10;;;1.20;;
62947;SDS011;51940;52.126;-0.994;2022-10-31T13:09:08;3.70;;;1.60;;
62947;SDS011;51940;52.126;-0.994;2022-10-31T13:11:38;4.40;;;1.30;;
62947;SDS011;51940;52.126;-0.994;2022-10-31T13:16:45;4.80;;;1.30;;
62947;SDS011;51940;52.126;-0.994;2022-10-31T13:24:54;4.70;;;1.20;;
62947;SDS011;51940;52.126;-0.994;2022-10-31T13:27:30;5.30;;;1.30;;
62947;SDS011;51940;52.126;-0.994;2022-10-31T13:30:17;5.70;;;1.50;;
62947;SDS011;51940;52.126;-0.994;2022-10-31T13:32:49;4.00;;;1.10;;
62947;SDS011;51940;52.126;-0.994;2022-10-31T13:40:44;7.40;;;1.80;;
62947;SDS011;51940;52.126;-0.994;2022-10-31T13:43:26;5.70;;;1.60;;
62947;SDS011;51940;52.126;-0.994;2022-10-31T13:45:53;2.40;;;0.90;;
62947;SDS011;51940;52.126;-0.994;2022-10-31T13:48:32;5.30;;;1.30;;
62947;SDS011;51940;52.126;-0.994;2022-10-31T13:51:07;6.80;;;1.40;;
62947;SDS011;51940;52.126;-0.994;2022-10-31T13:53:44;6.20;;;1.40;;
62947;SDS011;51940;52.126;-0.994;2022-10-31T13:59:21;6.20;;;1.40;;
62947;SDS011;51940;52.126;-0.994;2022-10-31T14:01:56;4.40;;;1.20;;
62947;SDS011;51940;52.126;-0.994;2022-10-31T14:04:26;6.20;;;1.30;;
62947;SDS011;51940;52.126;-0.994;2022-10-31T14:07:07;4.50;;;1.30;;
62947;SDS011;51940;52.126;-0.994;2022-10-31T14:09:38;5.40;;;1.40;;
62947;SDS011;51940;52.126;-0.994;2022-10-31T14:15:17;6.00;;;1.20;;
62947;SDS011;51940;52.126;-0.994;2022-10-31T14:17:46;4.10;;;1.40;;
62947;SDS011;51940;52.126;-0.994;2022-10-31T14:22:41;5.10;;;1.50;;
62947;SDS011;51940;52.126;-0.994;2022-10-31T14:27:57;5.10;;;1.40;;
62947;SDS011;51940;52.126;-0.994;2022-10-31T14:30:25;4.30;;;1.10;;
62947;SDS011;51940;52.126;-0.994;2022-10-31T14:32:59;2.60;;;1.00;;
62947;SDS011;51940;52.126;-0.994;2022-10-31T14:35:29;8.50;;;1.50;;
62947;SDS011;51940;52.126;-0.994;2022-10-31T14:38:26;6.40;;;1.40;;
62947;SDS011;51940;52.126;-0.994;2022-10-31T14:43:47;4.40;;;1.70;;
62947;SDS011;51940;52.126;-0.994;2022-10-31T14:52:08;6.60;;;1.70;;
62947;SDS011;51940;52.126;-0.994;2022-10-31T14:54:39;4.50;;;1.50;;
62947;SDS011;51940;52.126;-0.994;2022-10-31T14:57:15;4.40;;;1.30;;
62947;SDS011;51940;52.126;-0.994;2022-10-31T14:59:46;4.10;;;1.50;;
62947;SDS011;51940;52.126;-0.994;2022-10-31T15:02:17;6.10;;;1.50;;
62947;SDS011;51940;52.126;-0.994;2022-10-31T15:04:48;5.20;;;1.60;;
62947;SDS011;51940;52.126;-0.994;2022-10-31T15:10:02;7.80;;;2.20;;
62947;SDS011;51940;52.126;-0.994;2022-10-31T15:12:32;5.20;;;1.90;;
62947;SDS011;51940;52.126;-0.994;2022-10-31T15:15:11;6.30;;;2.30;;
62947;SDS011;51940;52.126;-0.994;2022-10-31T15:17:44;6.00;;;1.80;;
62947;SDS011;51940;52.126;-0.994;2022-10-31T15:20:17;4.50;;;1.70;;
62947;SDS011;51940;52.126;-0.994;2022-10-31T15:22:44;3.40;;;1.40;;
62947;SDS011;51940;52.126;-0.994;2022-10-31T15:25:21;4.00;;;1.30;;
62947;SDS011;51940;52.126;-0.994;2022-10-31T15:27:48;2.60;;;1.10;;
62947;SDS011;51940;52.126;-0.994;2022-10-31T15:30:16;4.50;;;1.40;;
62947;SDS011;51940;52.126;-0.994;2022-10-31T15:32:45;5.00;;;1.60;;
62947;SDS011;51940;52.126;-0.994;2022-10-31T15:35:23;4.40;;;1.60;;
62947;SDS011;51940;52.126;-0.994;2022-10-31T15:37:53;4.90;;;1.70;;
62947;SDS011;51940;52.126;-0.994;2022-10-31T15:40:20;3.50;;;1.30;;
62947;SDS011;51940;52.126;-0.994;2022-10-31T15:43:02;3.30;;;1.70;;
62947;SDS011;51940;52.126;-0.994;2022-10-31T15:45:29;5.40;;;1.70;;
62947;SDS011;51940;52.126;-0.994;2022-10-31T15:50:28;7.90;;;1.80;;
62947;SDS011;51940;52.126;-0.994;2022-10-31T15:53:00;4.30;;;1.60;;
62947;SDS011;51940;52.126;-0.994;2022-10-31T15:55:28;5.90;;;1.60;;
62947;SDS011;51940;52.126;-0.994;2022-10-31T15:58:01;5.50;;;1.60;;
62947;SDS011;51940;52.126;-0.994;2022-10-31T16:00:35;5.10;;;1.90;;
62947;SDS011;51940;52.126;-0.994;2022-10-31T16:05:47;6.80;;;2.10;;
62947;SDS011;51940;52.126;-0.994;2022-10-31T16:08:48;6.30;;;2.00;;
62947;SDS011;51940;52.126;-0.994;2022-10-31T16:13:59;6.30;;;2.00;;
62947;SDS011;51940;52.126;-0.994;2022-10-31T16:16:29;6.30;;;1.90;;
62947;SDS011;51940;52.126;-0.994;2022-10-31T16:18:57;4.00;;;1.90;;
62947;SDS011;51940;52.126;-0.994;2022-10-31T16:21:28;3.90;;;1.70;;
62947;SDS011;51940;52.126;-0.994;2022-10-31T16:23:58;9.50;;;2.00;;
62947;SDS011;51940;52.126;-0.994;2022-10-31T16:26:38;4.40;;;2.00;;
62947;SDS011;51940;52.126;-0.994;2022-10-31T16:29:04;5.40;;;2.10;;
62947;SDS011;51940;52.126;-0.994;2022-10-31T16:31:39;5.40;;;1.90;;
62947;SDS011;51940;52.126;-0.994;2022-10-31T16:34:15;5.80;;;2.40;;
62947;SDS011;51940;52.126;-0.994;2022-10-31T16:36:44;5.10;;;2.00;;
62947;SDS011;51940;52.126;-0.994;2022-10-31T16:39:10;7.20;;;2.40;;
62947;SDS011;51940;52.126;-0.994;2022-10-31T16:41:40;5.10;;;2.20;;
62947;SDS011;51940;52.126;-0.994;2022-10-31T16:44:17;6.70;;;2.50;;
62947;SDS011;51940;52.126;-0.994;2022-10-31T16:46:46;6.10;;;2.40;;
62947;SDS011;51940;52.126;-0.994;2022-10-31T16:49:11;7.10;;;2.70;;
62947;SDS011;51940;52.126;-0.994;2022-10-31T16:51:37;8.10;;;2.30;;
62947;SDS011;51940;52.126;-0.994;2022-10-31T16:54:02;3.30;;;1.80;;
62947;SDS011;51940;52.126;-0.994;2022-10-31T16:56:29;5.60;;;2.10;;
62947;SDS011;51940;52.126;-0.994;2022-10-31T16:59:06;6.90;;;2.10;;
62947;SDS011;51940;52.126;-0.994;2022-10-31T17:01:37;5.80;;;2.10;;
62947;SDS011;51940;52.126;-0.994;2022-10-31T17:04:04;3.60;;;1.70;;
62947;SDS011;51940;52.126;-0.994;2022-10-31T17:06:29;4.20;;;1.90;;
62947;SDS011;51940;52.126;-0.994;2022-10-31T17:08:55;3.20;;;1.50;;
62947;SDS011;51940;52.126;-0.994;2022-10-31T17:11:21;3.70;;;1.60;;
62947;SDS011;51940;52.126;-0.994;2022-10-31T17:13:49;6.60;;;2.00;;
62947;SDS011;51940;52.126;-0.994;2022-10-31T17:16:15;4.90;;;1.90;;